Time;durP1;ratioP1;P1;durP2;ratioP2;P2;SDS_P1;SDS_P2;PMS_P1;PMS_P2;Temp;Humidity;BMP_temperature;BMP_pressure;BME280_temperature;BME280_humidity;BME280_pressure;Samples;Min_cycle;Max_cycle;Signal;HPM_P1;HPM_P2
2022/07/02 00:01:27;;;;;;;3.60;2.70;;;14.20;99.90;;;;;;5008658;28;20209;-66
2022/07/02 00:04:00;;;;;;;3.10;2.80;;;14.10;99.90;;;;;;5008321;28;20202;-66
2022/07/02 00:06:30;;;;;;;7.00;3.27;;;14.20;99.90;;;;;;5008235;28;20221;-66
2022/07/02 00:08:58;;;;;;;4.43;2.70;;;14.30;99.90;;;;;;5005658;28;20534;-67
2022/07/02 00:11:26;;;;;;;4.30;2.90;;;14.20;99.90;;;;;;5003744;28;20617;-67
2022/07/02 00:13:54;;;;;;;4.67;3.10;;;14.20;99.90;;;;;;5006246;28;20570;-67
2022/07/02 00:16:21;;;;;;;5.27;3.10;;;14.20;99.90;;;;;;5009375;28;20224;-66
2022/07/02 00:18:49;;;;;;;3.60;2.90;;;14.00;99.90;;;;;;5002258;28;20204;-67
2022/07/02 00:21:16;;;;;;;3.90;2.60;;;14.00;99.90;;;;;;5002374;28;20209;-66
2022/07/02 00:23:43;;;;;;;3.43;2.60;;;14.00;99.90;;;;;;5008228;28;20197;-68
2022/07/02 00:26:38;;;;;;;4.13;2.80;;;14.00;99.90;;;;;;5006569;28;20242;-66
2022/07/02 00:29:25;;;;;;;4.37;2.90;;;14.10;99.90;;;;;;4999330;28;20197;-67
2022/07/02 00:31:52;;;;;;;4.47;2.80;;;14.10;99.90;;;;;;5004387;28;20209;-65
2022/07/02 00:34:21;;;;;;;4.43;3.10;;;14.10;99.90;;;;;;5009150;28;20200;-67
2022/07/02 00:36:49;;;;;;;4.50;2.73;;;13.90;99.90;;;;;;5005666;28;20210;-67
2022/07/02 00:39:16;;;;;;;3.40;2.50;;;13.80;99.90;;;;;;5001808;28;20248;-66
2022/07/02 00:41:44;;;;;;;4.73;3.07;;;13.70;99.90;;;;;;5007715;28;20195;-66
2022/07/02 00:44:12;;;;;;;3.67;2.83;;;13.70;99.90;;;;;;5006589;28;20200;-67
2022/07/02 00:46:42;;;;;;;4.40;2.83;;;13.90;99.90;;;;;;5001093;28;20202;-68
2022/07/02 00:49:16;;;;;;;4.57;2.57;;;13.80;99.90;;;;;;5006902;28;20263;-69
2022/07/02 00:51:43;;;;;;;7.10;3.00;;;13.80;99.90;;;;;;5004967;28;20212;-71
2022/07/02 00:54:10;;;;;;;3.40;3.10;;;13.60;99.90;;;;;;5005883;28;20277;-69
2022/07/02 00:56:36;;;;;;;4.77;3.57;;;13.50;99.90;;;;;;5002843;28;20224;-68
2022/07/02 00:59:04;;;;;;;3.57;2.90;;;13.50;99.90;;;;;;5005995;28;20201;-69
2022/07/02 01:01:30;;;;;;;4.13;3.03;;;13.50;99.90;;;;;;5006622;28;20192;-69
2022/07/02 01:04:01;;;;;;;7.80;3.17;;;13.50;99.90;;;;;;5002580;28;20246;-71
2022/07/02 01:06:32;;;;;;;5.27;3.10;;;13.50;99.90;;;;;;5006258;28;20335;-69
2022/07/02 01:11:46;;;;;;;4.90;3.20;;;13.50;99.90;;;;;;5004793;28;20475;-69
2022/07/02 01:14:16;;;;;;;4.97;3.37;;;13.60;99.90;;;;;;5003445;28;20216;-69
2022/07/02 01:16:43;;;;;;;5.93;3.50;;;13.70;99.90;;;;;;5005811;28;20648;-69
2022/07/02 01:19:14;;;;;;;4.33;2.90;;;13.60;99.90;;;;;;5005138;28;20193;-68
2022/07/02 01:22:30;;;;;;;4.13;3.00;;;13.50;99.90;;;;;;4998134;28;20206;-68
2022/07/02 01:24:57;;;;;;;3.83;3.00;;;13.20;99.90;;;;;;4999567;28;20236;-69
2022/07/02 01:27:24;;;;;;;4.80;3.50;;;13.20;99.90;;;;;;5005991;28;20193;-69
2022/07/02 01:29:51;;;;;;;4.10;3.33;;;13.10;99.90;;;;;;5002402;28;20208;-68
2022/07/02 01:32:18;;;;;;;4.80;3.43;;;13.30;99.90;;;;;;5003217;28;20207;-69
2022/07/02 01:34:48;;;;;;;4.97;3.60;;;13.30;99.90;;;;;;5002979;28;20605;-70
2022/07/02 01:37:17;;;;;;;3.80;3.10;;;13.10;99.90;;;;;;5001524;28;20217;-69
2022/07/02 01:39:45;;;;;;;4.67;3.23;;;13.10;99.90;;;;;;5004365;28;20223;-69
2022/07/02 01:42:13;;;;;;;4.20;2.93;;;13.10;99.90;;;;;;4997600;28;20197;-68
2022/07/02 01:44:40;;;;;;;5.43;3.07;;;13.10;99.90;;;;;;5003845;28;20227;-68
2022/07/02 01:47:10;;;;;;;3.70;3.10;;;13.10;99.90;;;;;;5009069;28;20192;-68
2022/07/02 01:49:38;;;;;;;3.73;3.17;;;12.90;99.90;;;;;;5008855;28;20200;-68
2022/07/02 01:52:06;;;;;;;5.60;3.53;;;12.90;99.90;;;;;;5005648;28;20543;-66
2022/07/02 01:54:33;;;;;;;4.53;3.17;;;13.10;99.90;;;;;;5010148;28;20208;-68
2022/07/02 01:57:01;;;;;;;5.70;3.20;;;13.20;99.90;;;;;;5007339;28;20604;-68
2022/07/02 01:59:28;;;;;;;3.63;2.83;;;13.10;99.90;;;;;;5007990;28;20195;-67
2022/07/02 02:01:54;;;;;;;3.80;2.70;;;13.10;99.90;;;;;;5009298;28;20203;-67
2022/07/02 02:04:21;;;;;;;4.67;2.83;;;13.00;99.90;;;;;;5008315;28;20196;-68
2022/07/02 02:06:48;;;;;;;3.50;2.83;;;12.80;99.90;;;;;;5011306;28;20202;-68
2022/07/02 02:09:15;;;;;;;3.80;2.80;;;12.70;99.90;;;;;;5008027;28;20208;-69
2022/07/02 02:11:43;;;;;;;4.13;2.57;;;12.60;99.90;;;;;;5009742;28;20547;-68
2022/07/02 02:14:10;;;;;;;4.40;2.53;;;12.60;99.90;;;;;;5008408;28;20211;-67
2022/07/02 02:16:37;;;;;;;5.90;2.93;;;12.50;99.90;;;;;;5007660;28;20697;-68
2022/07/02 02:19:05;;;;;;;3.20;2.70;;;12.50;99.90;;;;;;5009521;28;20236;-67
2022/07/02 02:21:32;;;;;;;4.13;3.00;;;12.40;99.90;;;;;;5009872;28;20193;-66
2022/07/02 02:23:59;;;;;;;6.90;3.30;;;12.40;99.90;;;;;;5011545;28;20195;-68
2022/07/02 02:26:26;;;;;;;3.77;2.50;;;12.40;99.90;;;;;;5008554;28;20216;-67
2022/07/02 02:28:53;;;;;;;6.13;2.93;;;12.40;99.90;;;;;;5007678;28;20202;-67
2022/07/02 02:31:21;;;;;;;3.27;2.90;;;12.60;99.90;;;;;;5009336;28;20199;-67
2022/07/02 02:33:48;;;;;;;4.17;2.47;;;12.70;99.90;;;;;;5006435;28;20208;-68
2022/07/02 02:36:14;;;;;;;3.93;2.73;;;12.80;99.90;;;;;;5009295;28;20229;-69
2022/07/02 02:38:41;;;;;;;2.87;2.30;;;12.80;99.90;;;;;;5009563;28;20198;-69
2022/07/02 02:41:09;;;;;;;3.40;2.50;;;12.60;99.90;;;;;;5010297;28;20190;-68
2022/07/02 02:43:37;;;;;;;5.87;2.80;;;12.50;99.90;;;;;;5008307;28;20191;-67
2022/07/02 02:46:05;;;;;;;5.30;3.20;;;12.50;99.90;;;;;;5008544;28;20690;-68
2022/07/02 02:48:35;;;;;;;4.23;3.17;;;12.60;99.90;;;;;;5008347;28;20206;-66
2022/07/02 02:51:03;;;;;;;4.67;3.37;;;12.70;99.90;;;;;;5006254;28;20604;-67
2022/07/02 02:53:30;;;;;;;5.20;3.40;;;12.80;99.90;;;;;;5009267;28;20198;-66
2022/07/02 02:55:58;;;;;;;5.50;3.93;;;12.80;99.90;;;;;;5006787;28;20233;-67
2022/07/02 02:58:26;;;;;;;4.80;3.77;;;12.80;99.90;;;;;;5008510;28;20223;-66
2022/07/02 03:00:53;;;;;;;5.23;3.60;;;12.70;99.90;;;;;;5009395;28;20590;-66
2022/07/02 03:03:20;;;;;;;4.50;3.60;;;12.60;99.90;;;;;;5008189;28;20196;-66
2022/07/02 03:05:47;;;;;;;4.47;3.87;;;12.70;99.90;;;;;;5008741;28;20713;-68
2022/07/02 03:08:14;;;;;;;5.73;3.40;;;12.70;99.90;;;;;;5004616;28;20199;-68
2022/07/02 03:10:41;;;;;;;5.13;3.40;;;12.60;99.90;;;;;;5004117;28;20205;-68
2022/07/02 03:13:07;;;;;;;6.37;3.97;;;12.40;99.90;;;;;;5007747;28;20201;-66
2022/07/02 03:15:35;;;;;;;5.20;3.93;;;12.40;99.90;;;;;;5008649;28;20219;-67
2022/07/02 03:18:01;;;;;;;6.83;3.97;;;12.30;99.90;;;;;;5006169;28;20190;-67
2022/07/02 03:20:28;;;;;;;4.70;3.60;;;12.30;99.90;;;;;;5009167;28;20198;-67
2022/07/02 03:22:55;;;;;;;4.67;3.33;;;12.30;99.90;;;;;;5008992;28;20228;-67
2022/07/02 03:25:21;;;;;;;4.30;3.37;;;12.30;99.90;;;;;;5003578;28;20633;-66
2022/07/02 03:27:48;;;;;;;4.23;3.43;;;12.20;99.90;;;;;;5007302;28;20199;-68
2022/07/02 03:30:15;;;;;;;7.23;4.07;;;12.20;99.90;;;;;;5010192;28;20226;-66
2022/07/02 03:32:42;;;;;;;6.13;4.00;;;12.20;99.90;;;;;;5014987;28;20659;-67
2022/07/02 03:35:08;;;;;;;6.07;3.80;;;12.20;99.90;;;;;;5007129;28;20215;-67
2022/07/02 03:37:35;;;;;;;4.20;3.50;;;12.40;99.90;;;;;;5006713;28;20221;-66
2022/07/02 03:40:02;;;;;;;7.90;3.50;;;12.30;99.90;;;;;;5004919;28;20684;-66
2022/07/02 03:42:29;;;;;;;4.23;3.40;;;12.40;99.90;;;;;;5012347;28;20195;-66
2022/07/02 03:44:55;;;;;;;4.10;3.30;;;12.50;99.90;;;;;;5006733;28;20219;-67
2022/07/02 03:47:22;;;;;;;6.80;3.47;;;12.50;99.90;;;;;;5012033;28;20225;-67
2022/07/02 03:49:49;;;;;;;4.57;3.07;;;12.40;99.90;;;;;;5012897;28;20221;-68
2022/07/02 03:52:15;;;;;;;4.37;3.07;;;12.20;99.90;;;;;;5012221;28;20226;-66
2022/07/02 03:54:42;;;;;;;3.40;2.90;;;12.10;99.90;;;;;;5008247;28;20639;-68
2022/07/02 03:57:09;;;;;;;4.97;3.30;;;12.30;99.90;;;;;;5012311;28;20689;-67
2022/07/02 03:59:36;;;;;;;3.93;3.00;;;12.40;99.90;;;;;;5012404;28;20191;-67
2022/07/02 04:02:03;;;;;;;4.60;2.83;;;12.30;99.90;;;;;;5009773;28;20197;-67
2022/07/02 04:04:29;;;;;;;4.27;2.90;;;12.30;99.90;;;;;;5012230;28;20689;-66
2022/07/02 04:06:56;;;;;;;9.57;3.23;;;12.20;99.90;;;;;;5011766;28;20436;-68
2022/07/02 04:09:23;;;;;;;3.37;2.97;;;12.30;99.90;;;;;;5011791;28;20700;-66
2022/07/02 04:11:49;;;;;;;3.87;3.00;;;12.50;99.90;;;;;;5008527;28;20219;-66
2022/07/02 04:14:16;;;;;;;4.60;2.60;;;12.60;99.90;;;;;;5011899;28;20301;-67
2022/07/02 04:16:42;;;;;;;4.23;2.93;;;12.60;99.90;;;;;;5012192;28;20227;-67
2022/07/02 04:19:09;;;;;;;5.40;3.13;;;12.60;99.90;;;;;;5008471;28;20200;-67
2022/07/02 04:21:41;;;;;;;5.50;3.23;;;12.50;99.90;;;;;;5008159;28;20580;-66
2022/07/02 04:24:07;;;;;;;3.20;2.40;;;12.70;99.90;;;;;;5011336;28;20703;-68
2022/07/02 04:26:34;;;;;;;2.77;2.30;;;12.90;99.90;;;;;;5011912;28;20204;-67
2022/07/02 04:29:01;;;;;;;3.33;2.40;;;12.80;99.90;;;;;;5010867;28;20196;-67
2022/07/02 04:31:29;;;;;;;2.83;2.37;;;12.80;99.90;;;;;;5011940;28;20200;-67
2022/07/02 04:33:56;;;;;;;4.50;2.70;;;12.60;99.90;;;;;;5011448;28;20230;-69
2022/07/02 04:36:23;;;;;;;2.60;2.37;;;12.70;99.90;;;;;;5008195;28;20240;-70
2022/07/02 04:38:50;;;;;;;2.97;2.23;;;12.80;99.90;;;;;;5011291;28;20217;-69
2022/07/02 04:41:17;;;;;;;3.17;2.30;;;12.80;99.90;;;;;;5006511;28;20202;-69
2022/07/02 04:43:43;;;;;;;2.70;2.30;;;12.90;99.90;;;;;;5010161;28;20200;-68
2022/07/02 04:46:10;;;;;;;4.00;2.40;;;13.00;99.90;;;;;;5008337;28;20217;-69
2022/07/02 04:48:37;;;;;;;2.83;2.40;;;13.20;99.90;;;;;;5011739;28;20233;-70
2022/07/02 04:51:03;;;;;;;4.13;2.37;;;13.40;99.90;;;;;;5010699;28;20204;-69
2022/07/02 04:53:30;;;;;;;4.37;2.53;;;13.50;99.90;;;;;;5007648;28;20193;-68
2022/07/02 04:55:57;;;;;;;3.60;2.30;;;13.60;99.90;;;;;;5010552;28;20237;-69
2022/07/02 04:58:24;;;;;;;3.10;2.00;;;13.70;99.90;;;;;;5011089;28;20193;-69
2022/07/02 05:00:51;;;;;;;2.57;2.10;;;13.70;99.90;;;;;;5011245;28;20201;-68
2022/07/02 05:03:18;;;;;;;2.70;1.90;;;13.70;99.90;;;;;;5008590;28;20288;-69
2022/07/02 05:05:44;;;;;;;4.67;1.90;;;13.70;99.90;;;;;;5010197;28;20233;-68
2022/07/02 05:08:11;;;;;;;2.60;1.80;;;13.80;99.90;;;;;;5010869;28;20665;-68
2022/07/02 05:10:38;;;;;;;4.00;2.23;;;13.80;99.90;;;;;;5009308;28;20210;-67
2022/07/02 05:13:04;;;;;;;3.20;2.10;;;13.90;99.90;;;;;;5007443;28;20694;-67
2022/07/02 05:15:31;;;;;;;3.50;1.90;;;14.00;99.90;;;;;;5010061;28;20230;-67
2022/07/02 05:17:58;;;;;;;3.73;1.67;;;14.00;99.90;;;;;;5009273;28;20273;-68
2022/07/02 05:20:25;;;;;;;2.20;2.00;;;14.10;99.90;;;;;;5009341;28;20207;-67
2022/07/02 05:22:51;;;;;;;2.23;1.80;;;14.20;99.90;;;;;;5009465;28;20227;-68
2022/07/02 05:25:18;;;;;;;6.47;2.30;;;14.50;99.90;;;;;;5009878;28;20226;-68
2022/07/02 05:27:45;;;;;;;4.27;2.00;;;14.60;99.90;;;;;;5009542;28;20222;-68
2022/07/02 05:30:11;;;;;;;2.23;1.77;;;14.60;99.90;;;;;;5010437;28;20662;-67
2022/07/02 05:32:38;;;;;;;2.60;2.00;;;14.60;99.90;;;;;;5010350;28;20771;-68
2022/07/02 05:35:05;;;;;;;3.20;1.90;;;14.70;99.90;;;;;;5010259;28;20220;-68
2022/07/02 05:37:33;;;;;;;2.10;1.90;;;14.80;99.90;;;;;;5007292;28;20216;-68
2022/07/02 05:39:59;;;;;;;2.70;2.00;;;14.90;99.90;;;;;;5010174;28;20678;-68
2022/07/02 05:42:26;;;;;;;3.07;2.20;;;15.00;99.90;;;;;;5007823;28;20207;-68
2022/07/02 05:44:52;;;;;;;4.73;1.93;;;15.10;99.90;;;;;;5009682;28;20569;-70
2022/07/02 05:47:19;;;;;;;3.77;1.80;;;15.30;99.90;;;;;;5006804;28;20215;-69
2022/07/02 05:49:46;;;;;;;4.07;2.00;;;15.30;99.90;;;;;;5010546;28;20210;-68
2022/07/02 05:52:14;;;;;;;5.60;2.30;;;15.40;99.90;;;;;;5009176;28;20275;-68
2022/07/02 05:54:41;;;;;;;3.10;2.20;;;15.50;99.90;;;;;;5005575;28;20224;-68
2022/07/02 05:57:09;;;;;;;4.33;2.73;;;15.60;99.90;;;;;;5007161;28;20266;-70
2022/07/02 05:59:41;;;;;;;3.20;2.20;;;15.90;99.90;;;;;;5005153;28;20618;-65
2022/07/02 06:02:08;;;;;;;3.00;2.40;;;16.00;99.90;;;;;;5008376;28;20196;-67
2022/07/02 06:04:34;;;;;;;4.53;3.00;;;16.00;99.90;;;;;;5005252;28;20311;-67
2022/07/02 06:09:46;;;;;;;4.70;2.97;;;16.40;99.90;;;;;;5008492;28;20200;-66
2022/07/02 06:12:13;;;;;;;6.43;3.13;;;16.40;99.90;;;;;;5009109;28;20200;-66
2022/07/02 06:14:40;;;;;;;4.50;2.37;;;16.40;99.90;;;;;;5009546;28;20235;-66
2022/07/02 06:17:08;;;;;;;3.47;2.50;;;16.50;99.90;;;;;;5009855;28;20266;-65
2022/07/02 06:19:34;;;;;;;4.73;3.23;;;16.60;99.90;;;;;;5005869;28;20678;-67
2022/07/02 06:22:01;;;;;;;7.70;3.13;;;16.70;99.90;;;;;;5005543;28;20196;-67
2022/07/02 06:24:27;;;;;;;6.70;3.50;;;17.00;99.90;;;;;;5009253;28;20686;-66
2022/07/02 06:26:54;;;;;;;5.67;3.87;;;17.50;99.90;;;;;;5006958;28;20205;-66
2022/07/02 06:29:21;;;;;;;12.13;3.80;;;17.90;99.90;;;;;;5009693;28;20192;-66
2022/07/02 06:31:47;;;;;;;7.57;3.73;;;18.00;99.90;;;;;;5008487;28;20207;-66
2022/07/02 06:34:14;;;;;;;8.70;4.00;;;18.00;99.90;;;;;;5008990;28;20207;-66
2022/07/02 06:36:41;;;;;;;6.60;4.60;;;17.90;99.90;;;;;;5008705;28;20247;-69
2022/07/02 06:39:07;;;;;;;5.67;4.30;;;17.90;99.90;;;;;;5009462;28;20215;-68
2022/07/02 06:44:19;;;;;;;5.80;3.30;;;17.90;99.90;;;;;;5005720;28;20192;-69
2022/07/02 06:46:46;;;;;;;7.03;3.50;;;18.00;99.90;;;;;;5003663;28;20200;-67
2022/07/02 06:49:13;;;;;;;6.57;3.50;;;18.00;99.90;;;;;;5009584;28;20196;-66
2022/07/02 06:51:40;;;;;;;6.33;3.30;;;18.10;99.90;;;;;;5007774;28;20239;-66
2022/07/02 06:54:06;;;;;;;9.87;4.63;;;18.20;99.90;;;;;;5004046;28;20202;-65
2022/07/02 06:56:35;;;;;;;5.40;3.63;;;18.50;99.90;;;;;;5004265;28;20227;-65
2022/07/02 06:59:06;;;;;;;5.30;3.50;;;18.60;99.90;;;;;;5009381;28;20619;-64
2022/07/02 07:01:33;;;;;;;5.53;3.60;;;18.70;99.90;;;;;;5007525;28;20210;-69
2022/07/02 07:04:00;;;;;;;6.57;4.20;;;18.90;99.90;;;;;;5008568;28;20575;-65
2022/07/02 07:06:29;;;;;;;5.40;3.70;;;19.00;99.90;;;;;;5010128;28;20216;-67
2022/07/02 07:08:55;;;;;;;8.60;3.73;;;19.30;99.90;;;;;;5008033;28;20211;-66
2022/07/02 07:11:22;;;;;;;4.90;3.17;;;20.00;99.90;;;;;;5015345;28;20202;-68
2022/07/02 07:13:49;;;;;;;5.00;2.80;;;20.90;99.90;;;;;;5013048;28;20204;-68
2022/07/02 07:16:16;;;;;;;6.53;3.10;;;22.00;99.90;;;;;;5012245;28;20584;-69
2022/07/02 07:21:25;;;;;;;4.45;2.92;;;23.50;99.90;;;;;;5013094;28;20242;-68
2022/07/02 07:23:51;;;;;;;4.65;3.30;;;24.50;99.90;;;;;;5012995;28;20288;-69
2022/07/02 07:26:18;;;;;;;4.75;2.88;;;24.90;99.90;;;;;;5013579;28;20218;-69
2022/07/02 07:28:45;;;;;;;5.80;3.20;;;25.00;99.90;;;;;;5012809;28;20201;-68
2022/07/02 07:31:11;;;;;;;4.43;2.58;;;25.00;99.90;;;;;;5012754;28;20196;-69
2022/07/02 07:33:39;;;;;;;5.82;2.88;;;25.50;99.90;;;;;;5009623;28;20188;-68
2022/07/02 07:36:05;;;;;;;10.07;4.40;;;25.60;99.90;;;;;;5012333;28;20216;-69
2022/07/02 07:38:32;;;;;;;4.05;3.05;;;25.70;99.90;;;;;;5012693;28;20196;-68
2022/07/02 07:40:59;;;;;;;6.18;3.08;;;25.70;99.90;;;;;;5009981;28;20659;-68
2022/07/02 07:43:26;;;;;;;6.93;3.03;;;25.90;99.90;;;;;;5011413;28;20200;-68
2022/07/02 07:45:54;;;;;;;4.57;2.85;;;26.00;99.90;;;;;;5017063;28;20218;-69
2022/07/02 07:48:28;;;;;;;7.38;2.75;;;26.00;99.90;;;;;;5016592;28;20694;-71
2022/07/02 07:50:56;;;;;;;4.75;2.95;;;26.10;99.90;;;;;;5007343;28;20227;-71
2022/07/02 07:53:23;;;;;;;3.20;2.30;;;26.20;99.90;;;;;;5007302;28;20538;-70
2022/07/02 07:55:50;;;;;;;4.68;2.75;;;26.30;99.90;;;;;;5012265;28;20220;-70
2022/07/02 07:58:17;;;;;;;5.80;2.50;;;26.40;99.90;;;;;;5005015;28;20216;-71
2022/07/02 08:00:45;;;;;;;4.30;2.25;;;26.40;99.90;;;;;;5010166;28;20204;-70
2022/07/02 08:03:14;;;;;;;7.45;2.33;;;26.40;99.90;;;;;;5012718;28;20279;-70
2022/07/02 08:05:41;;;;;;;3.08;2.05;;;26.40;99.90;;;;;;5009666;28;20217;-68
2022/07/02 08:08:08;;;;;;;5.55;2.00;;;26.40;99.90;;;;;;5009395;28;20196;-71
2022/07/02 08:10:35;;;;;;;4.00;2.20;;;26.30;99.90;;;;;;5012586;28;20651;-70
2022/07/02 08:13:02;;;;;;;3.47;2.38;;;26.20;99.90;;;;;;5017063;28;20279;-70
2022/07/02 08:15:28;;;;;;;4.90;2.50;;;26.00;99.90;;;;;;5009532;28;20223;-69
2022/07/02 08:18:00;;;;;;;5.50;2.80;;;25.90;99.90;;;;;;5002254;28;20220;-70
2022/07/02 08:20:26;;;;;;;3.80;2.78;;;25.80;99.90;;;;;;5009565;28;20188;-70
2022/07/02 08:22:53;;;;;;;4.07;2.25;;;25.60;99.90;;;;;;5011715;28;20204;-69
2022/07/02 08:25:20;;;;;;;4.07;2.25;;;25.60;99.90;;;;;;5008579;28;20222;-70
2022/07/02 08:27:46;;;;;;;15.98;2.42;;;25.50;99.90;;;;;;5011262;28;20227;-70
2022/07/02 08:30:13;;;;;;;4.80;3.30;;;25.40;99.90;;;;;;5011723;28;20204;-69
2022/07/02 08:32:40;;;;;;;7.53;3.10;;;25.40;99.90;;;;;;5010569;28;20702;-70
2022/07/02 08:35:12;;;;;;;3.60;2.60;;;25.40;99.90;;;;;;5007456;28;20224;-67
2022/07/02 08:37:39;;;;;;;4.28;3.22;;;25.20;99.90;;;;;;5011070;28;20231;-66
2022/07/02 08:40:06;;;;;;;5.22;2.78;;;25.00;99.90;;;;;;5011372;28;20196;-67
2022/07/02 08:42:35;;;;;;;3.10;2.60;;;24.80;99.90;;;;;;5009447;28;20203;-66
2022/07/02 08:45:03;;;;;;;6.78;2.53;;;24.80;99.90;;;;;;5004402;28;20212;-66
2022/07/02 08:47:31;;;;;;;2.40;1.80;;;24.80;99.90;;;;;;5008234;28;20392;-67
2022/07/02 08:49:59;;;;;;;3.97;1.83;;;24.90;99.90;;;;;;5010559;28;20200;-67
2022/07/02 08:52:27;;;;;;;3.42;1.60;;;24.90;99.90;;;;;;5005876;28;20228;-66
2022/07/02 08:54:55;;;;;;;4.28;1.30;;;24.80;99.90;;;;;;5012667;28;20711;-67
2022/07/02 08:57:23;;;;;;;2.15;1.30;;;24.90;99.90;;;;;;5009842;28;20223;-67
2022/07/02 08:59:49;;;;;;;5.25;1.98;;;25.00;99.90;;;;;;5010737;28;20208;-66
2022/07/02 09:02:18;;;;;;;2.90;1.90;;;25.10;99.90;;;;;;5010982;28;20200;-67
2022/07/02 09:04:47;;;;;;;4.55;1.20;;;25.20;99.90;;;;;;5010476;28;20303;-67
2022/07/02 09:07:15;;;;;;;4.13;1.30;;;25.20;99.90;;;;;;5010978;28;20196;-67
2022/07/02 09:09:44;;;;;;;2.78;1.33;;;25.30;99.90;;;;;;5008563;28;20200;-70
2022/07/02 09:12:13;;;;;;;5.28;1.35;;;25.30;99.90;;;;;;5010101;28;20204;-66
2022/07/02 09:14:41;;;;;;;4.57;1.42;;;25.40;99.90;;;;;;5010462;28;20224;-67
2022/07/02 09:17:11;;;;;;;2.83;1.33;;;25.50;99.90;;;;;;5010680;28;20216;-66
2022/07/02 09:19:39;;;;;;;2.58;1.23;;;25.50;99.90;;;;;;5010137;28;20192;-67
2022/07/02 09:22:07;;;;;;;4.15;1.10;;;25.50;99.90;;;;;;5011047;28;20219;-67
2022/07/02 09:24:42;;;;;;;2.17;1.20;;;25.70;99.90;;;;;;5009178;28;20212;-66
2022/07/02 09:27:12;;;;;;;2.03;1.38;;;25.60;99.90;;;;;;5004469;28;20191;-67
2022/07/02 09:29:52;;;;;;;2.67;1.65;;;25.70;99.90;;;;;;5010922;28;20207;-67
2022/07/02 09:32:20;;;;;;;2.38;1.50;;;25.70;99.90;;;;;;5009202;28;20544;-67
2022/07/02 09:34:50;;;;;;;2.60;1.00;;;25.80;99.90;;;;;;5006035;28;20219;-66
2022/07/02 09:37:22;;;;;;;2.47;1.00;;;25.80;99.90;;;;;;5010624;28;20231;-67
2022/07/02 09:39:51;;;;;;;1.45;1.00;;;26.00;99.90;;;;;;5001809;28;20684;-67
2022/07/02 09:42:24;;;;;;;2.47;0.90;;;26.00;99.90;;;;;;5010407;28;20196;-67
2022/07/02 09:44:52;;;;;;;1.17;0.77;;;26.10;99.90;;;;;;5012200;28;20227;-67
2022/07/02 09:47:48;;;;;;;1.08;0.80;;;26.20;99.90;;;;;;5013076;28;20222;-67
2022/07/02 09:50:17;;;;;;;2.38;0.85;;;26.40;99.90;;;;;;5006170;28;20247;-67
2022/07/02 09:52:53;;;;;;;0.73;0.70;;;26.50;99.90;;;;;;5007347;28;20200;-69
2022/07/02 09:55:28;;;;;;;2.33;0.75;;;26.50;99.90;;;;;;5011170;28;20281;-70
2022/07/02 09:58:00;;;;;;;0.60;0.60;;;26.50;99.90;;;;;;5010977;28;20226;-69
2022/07/02 10:00:30;;;;;;;1.83;1.08;;;26.60;99.90;;;;;;5004116;28;20535;-69
2022/07/02 10:02:58;;;;;;;1.15;0.70;;;26.50;99.90;;;;;;5006347;28;20744;-68
2022/07/02 10:05:27;;;;;;;1.02;0.80;;;26.50;99.90;;;;;;5006658;28;20219;-71
2022/07/02 10:07:56;;;;;;;1.60;0.70;;;26.50;99.90;;;;;;5009878;28;20637;-69
2022/07/02 10:10:46;;;;;;;1.67;0.70;;;26.50;99.90;;;;;;4996887;28;20201;-69
2022/07/02 10:13:15;;;;;;;0.88;0.63;;;26.50;99.90;;;;;;5010021;28;20200;-70
2022/07/02 10:15:58;;;;;;;0.90;0.70;;;26.70;99.90;;;;;;5002693;28;20220;-69
2022/07/02 10:18:25;;;;;;;0.95;0.70;;;26.70;99.90;;;;;;5007545;28;20244;-69
2022/07/02 10:20:56;;;;;;;3.05;0.98;;;26.80;99.90;;;;;;5010870;28;20219;-70
2022/07/02 10:23:24;;;;;;;1.40;0.90;;;26.90;99.90;;;;;;5008517;28;20204;-69
2022/07/02 10:25:51;;;;;;;1.15;0.80;;;27.00;99.90;;;;;;5012635;28;20223;-69
2022/07/02 10:28:18;;;;;;;1.17;0.88;;;27.00;99.40;;;;;;5006185;28;20226;-69
2022/07/02 10:30:45;;;;;;;1.20;0.70;;;27.10;99.90;;;;;;5009689;28;20454;-69
2022/07/02 10:33:37;;;;;;;2.38;0.80;;;27.10;99.50;;;;;;5009949;28;20215;-70
2022/07/02 10:36:07;;;;;;;4.53;1.00;;;27.20;99.10;;;;;;4997217;28;20216;-69
2022/07/02 10:38:37;;;;;;;0.75;0.75;;;27.20;99.90;;;;;;5010125;28;20713;-70
2022/07/02 10:41:05;;;;;;;2.13;0.68;;;27.10;99.90;;;;;;5006540;28;20193;-67
2022/07/02 10:43:34;;;;;;;1.52;0.77;;;27.10;99.50;;;;;;5007897;28;20779;-66
2022/07/02 10:46:13;;;;;;;1.67;0.88;;;27.20;99.50;;;;;;5002541;28;20238;-66
2022/07/02 10:48:51;;;;;;;2.30;1.05;;;27.30;97.70;;;;;;5009225;28;20211;-67
2022/07/02 10:51:20;;;;;;;1.95;1.10;;;27.30;97.90;;;;;;5009174;28;20206;-67
2022/07/02 10:53:51;;;;;;;1.67;1.35;;;27.40;98.50;;;;;;5002123;28;20200;-67
2022/07/02 10:56:18;;;;;;;2.28;1.60;;;27.50;98.30;;;;;;5008947;28;20223;-67
2022/07/02 10:58:46;;;;;;;1.77;1.02;;;27.50;97.40;;;;;;5009219;28;20219;-66
2022/07/02 11:01:14;;;;;;;1.90;0.80;;;27.50;98.70;;;;;;5009561;28;20196;-67
2022/07/02 11:03:56;;;;;;;0.77;0.70;;;27.60;98.30;;;;;;5008668;28;20196;-67
2022/07/02 11:06:25;;;;;;;1.45;0.90;;;27.70;98.50;;;;;;5008982;28;20216;-67
2022/07/02 11:09:04;;;;;;;0.60;0.60;;;27.70;98.20;;;;;;5007978;28;20212;-67
2022/07/02 11:11:34;;;;;;;0.98;0.90;;;27.90;97.90;;;;;;5008171;28;20200;-67
2022/07/02 11:14:10;;;;;;;1.98;0.90;;;27.90;97.10;;;;;;5002108;28;20231;-67
2022/07/02 11:16:43;;;;;;;1.02;0.80;;;28.00;97.80;;;;;;5008339;28;20693;-67
2022/07/02 11:19:17;;;;;;;1.00;0.90;;;28.00;98.00;;;;;;5003162;28;20655;-67
2022/07/02 11:21:45;;;;;;;1.50;0.95;;;28.00;97.60;;;;;;5008769;28;20200;-67
2022/07/02 11:24:22;;;;;;;0.80;0.80;;;28.10;97.20;;;;;;5008448;28;20675;-67
2022/07/02 11:26:50;;;;;;;1.60;0.80;;;28.00;97.00;;;;;;5007160;28;20686;-68
2022/07/02 11:29:17;;;;;;;0.77;0.65;;;28.10;97.10;;;;;;5003134;28;20548;-67
2022/07/02 11:31:48;;;;;;;0.75;0.70;;;28.10;96.00;;;;;;5010930;28;20200;-68
2022/07/02 11:34:19;;;;;;;1.60;0.77;;;28.00;96.10;;;;;;4991949;28;20201;-70
2022/07/02 11:36:46;;;;;;;3.33;0.70;;;28.00;97.10;;;;;;5001016;28;20208;-69
2022/07/02 11:39:16;;;;;;;1.02;0.90;;;28.00;98.00;;;;;;5009260;28;20682;-67
2022/07/02 11:41:45;;;;;;;1.77;1.02;;;28.10;98.30;;;;;;5007601;28;20562;-68
2022/07/02 11:44:20;;;;;;;2.63;1.38;;;28.20;97.90;;;;;;5008416;28;20212;-67
2022/07/02 11:46:53;;;;;;;1.55;1.00;;;28.00;98.20;;;;;;5008912;28;20192;-67
2022/07/02 11:49:22;;;;;;;1.67;1.10;;;28.00;98.90;;;;;;5007657;28;20196;-70
2022/07/02 11:51:51;;;;;;;1.15;1.05;;;28.10;98.50;;;;;;5009117;28;20207;-69
2022/07/02 11:54:18;;;;;;;1.25;0.95;;;28.10;98.10;;;;;;5012502;28;20215;-70
2022/07/02 11:56:46;;;;;;;1.48;0.95;;;28.20;98.30;;;;;;5008759;28;20243;-69
2022/07/02 11:59:21;;;;;;;1.35;1.00;;;28.10;97.90;;;;;;5012378;28;20226;-71
2022/07/02 12:01:50;;;;;;;3.20;0.90;;;28.20;98.10;;;;;;5012134;28;20674;-70
2022/07/02 12:04:19;;;;;;;2.00;1.17;;;28.20;98.10;;;;;;5011504;28;20195;-70
2022/07/02 12:06:51;;;;;;;1.77;1.10;;;28.30;98.40;;;;;;5011170;28;20279;-69
2022/07/02 12:09:22;;;;;;;1.60;1.20;;;28.30;98.10;;;;;;4999276;28;20197;-70
2022/07/02 12:11:49;;;;;;;1.13;1.00;;;28.30;98.40;;;;;;5010825;28;20283;-70
2022/07/02 12:14:23;;;;;;;2.50;1.30;;;28.50;98.40;;;;;;5009035;28;20651;-69
2022/07/02 12:16:51;;;;;;;1.10;1.00;;;28.50;98.80;;;;;;5011388;28;20200;-69
2022/07/02 12:19:19;;;;;;;1.42;1.02;;;28.50;98.70;;;;;;5011778;28;20216;-70
2022/07/02 12:21:47;;;;;;;2.10;1.02;;;28.60;99.20;;;;;;5011682;28;20650;-69
2022/07/02 12:24:22;;;;;;;1.20;1.00;;;28.60;97.90;;;;;;5009306;28;20204;-69
2022/07/02 12:26:53;;;;;;;1.30;1.13;;;28.60;98.60;;;;;;5010038;28;20569;-71
2022/07/02 12:32:27;;;;;;;1.30;1.20;;;28.70;98.20;;;;;;5010424;28;20199;-69
2022/07/02 12:34:56;;;;;;;1.50;1.20;;;28.70;98.30;;;;;;5011006;28;20227;-68
2022/07/02 12:37:26;;;;;;;1.23;0.90;;;28.70;97.80;;;;;;5011539;28;20212;-68
2022/07/02 12:40:18;;;;;;;2.03;1.30;;;28.80;98.10;;;;;;5004167;28;20212;-67
2022/07/02 12:42:59;;;;;;;1.20;1.10;;;28.70;99.20;;;;;;5010875;28;20288;-68
2022/07/02 12:45:35;;;;;;;2.55;1.35;;;28.60;98.20;;;;;;5010712;28;20219;-68
2022/07/02 12:48:08;;;;;;;1.67;1.20;;;28.60;98.20;;;;;;5003613;28;20264;-68
2022/07/02 12:50:38;;;;;;;3.05;1.70;;;28.60;99.30;;;;;;5010758;28;20550;-68
2022/07/02 12:53:08;;;;;;;3.75;2.08;;;28.80;99.10;;;;;;5004657;28;20280;-68
2022/07/02 12:55:37;;;;;;;1.90;1.40;;;28.90;98.80;;;;;;5009607;28;20597;-68
2022/07/02 12:58:10;;;;;;;1.80;1.25;;;29.20;98.20;;;;;;5010647;28;20212;-68
2022/07/02 13:00:39;;;;;;;3.50;1.65;;;29.20;98.50;;;;;;5010402;28;20212;-68
2022/07/02 13:03:14;;;;;;;5.40;3.15;;;29.20;98.70;;;;;;5010742;28;20195;-68
2022/07/02 13:05:45;;;;;;;4.57;1.70;;;29.30;98.20;;;;;;5002959;28;20582;-68
2022/07/02 13:08:13;;;;;;;2.33;1.50;;;29.30;97.60;;;;;;5009762;28;20216;-68